Terminal Aerodrome Forecast
Issued by NWS

Home | Current Version | Previous Version | Text Only | Print | Product List | Glossary On
Versions: 1 2 3 4 5 6 7 8 9 10 11 12 13 14 15
030
FTUS45 KRIW 070524
TAFJAC
TAF
KJAC 070524Z 0706/0806 20010KT P6SM VCSH SCT025 BKN050
      TEMPO 0706/0708 5SM -SN BKN025
     FM070900 18010KT P6SM BKN050
     FM071900 19007KT P6SM FEW120 SCT250
     FM080000 VRB05KT P6SM SKC
     FM080400 34006KT P6SM SCT025 BKN050
      AMD LTD TO CLD VIS AND WIND=

USA.gov is the U.S. government's official web portal to all federal, state and local government web resources and services.